Terminal Aerodrome Forecast
Issued by NWS Twin Cities, MN

Home | Current Version | Previous Version | Text Only | Print | Product List | Glossary On
Versions: 1 2 3 4 5 6 7 8 9 10 11 12
000
FTUS43 KMPX 191139
TAFEAU
TAF
KEAU 191139Z 1912/2012 03008KT P6SM OVC040
     FM191500 04011KT 4SM -FZRASN OVC025
     FM191800 04012KT 2SM -FZRASN OVC020
     FM200000 04010KT P6SM VCSH OVC010
     FM200600 04008KT P6SM OVC010
     FM201000 04007KT 2SM -FZRASN OVC010=

USA.gov is the U.S. government's official web portal to all federal, state and local government web resources and services.